Terminal Aerodrome Forecast
Issued by NWS

Home | Current Version | Previous Version | Graphics & Text | Print | Product List | Glossary On
Versions: 1 2 3 4 5 6 7 8 9 10 11 12 13 14 15 16 17 18 19 20 21 22 23 24 25
000
FTUS43 KICT 150520
TAFCNU
TAF
KCNU 150520Z 1506/1606 15005KT P6SM SKC
     FM150700 15004KT 6SM BR SCT003
     FM150900 15003KT 1SM BR OVC003
     FM151400 16004KT 3SM BR OVC007
     FM151600 15004KT P6SM BKN015
     FM151700 15007KT P6SM SCT030=

USA.gov is the U.S. government's official web portal to all federal, state and local government web resources and services.